Time;durP1;ratioP1;P1;durP2;ratioP2;P2;SDS_P1;SDS_P2;PMS_P1;PMS_P2;Temp;Humidity;BMP_temperature;BMP_pressure;BME280_temperature;BME280_humidity;BME280_pressure;Samples;Min_cycle;Max_cycle;Signal;HPM_P1;HPM_P2
2021/03/09 00:02:19;;;;;;;3.40;2.58;;;21.80;95.50;;;;;;5094393;28;20020;-50
2021/03/09 00:04:45;;;;;;;4.70;2.50;;;21.70;95.40;;;;;;5094575;28;20447;-50
2021/03/09 00:07:10;;;;;;;3.38;2.50;;;21.80;95.40;;;;;;5094587;28;20386;-53
2021/03/09 00:09:36;;;;;;;4.00;2.95;;;21.70;95.30;;;;;;5094582;28;20032;-50
2021/03/09 00:12:01;;;;;;;4.20;2.67;;;21.70;95.20;;;;;;5094309;28;20027;-51
2021/03/09 00:14:27;;;;;;;4.68;2.47;;;21.80;95.30;;;;;;5094373;28;20028;-51
2021/03/09 00:16:53;;;;;;;3.58;2.33;;;21.70;95.40;;;;;;5094319;28;20036;-54
2021/03/09 00:19:18;;;;;;;3.03;2.35;;;21.80;95.40;;;;;;5094380;28;20098;-52
2021/03/09 00:21:44;;;;;;;4.72;2.38;;;21.70;95.30;;;;;;5094271;28;20019;-50
2021/03/09 00:24:09;;;;;;;3.47;2.40;;;21.70;95.30;;;;;;5094188;28;20398;-50
2021/03/09 00:26:35;;;;;;;3.40;2.22;;;21.80;95.30;;;;;;5094253;28;20601;-53
2021/03/09 00:29:00;;;;;;;3.47;2.60;;;21.70;95.20;;;;;;5094121;28;20056;-56
2021/03/09 00:31:26;;;;;;;4.40;2.30;;;21.70;95.10;;;;;;5093879;28;20385;-55
2021/03/09 00:33:51;;;;;;;2.58;2.38;;;21.70;95.00;;;;;;5092718;28;20027;-56
2021/03/09 00:36:17;;;;;;;3.17;2.38;;;21.80;95.00;;;;;;5073858;28;20032;-52
2021/03/09 00:38:43;;;;;;;3.85;2.50;;;21.80;95.00;;;;;;5073688;28;20033;-49
2021/03/09 00:41:08;;;;;;;3.38;2.33;;;21.80;95.00;;;;;;5069604;28;20083;-51
2021/03/09 00:43:34;;;;;;;3.33;2.45;;;21.80;94.90;;;;;;5069078;28;20104;-50
2021/03/09 00:45:59;;;;;;;4.07;2.30;;;21.80;94.90;;;;;;5093902;28;20355;-53
2021/03/09 00:48:25;;;;;;;2.67;2.30;;;21.80;94.90;;;;;;5093642;28;20510;-50
2021/03/09 00:50:50;;;;;;;2.67;2.42;;;21.80;94.60;;;;;;5093576;28;20059;-49
2021/03/09 00:53:16;;;;;;;2.67;2.33;;;21.70;94.80;;;;;;5093640;28;20059;-50
2021/03/09 00:55:41;;;;;;;3.35;2.33;;;21.80;94.80;;;;;;5093728;28;20028;-52
2021/03/09 00:58:07;;;;;;;3.65;2.75;;;21.80;94.80;;;;;;5093576;28;20086;-49
2021/03/09 01:00:33;;;;;;;2.40;2.20;;;21.70;94.80;;;;;;5093410;28;20032;-50
2021/03/09 01:02:58;;;;;;;2.85;2.20;;;21.80;94.80;;;;;;5093318;28;20028;-50
2021/03/09 01:05:24;;;;;;;3.03;2.10;;;21.80;94.80;;;;;;5093373;28;20024;-50
2021/03/09 01:07:50;;;;;;;3.15;2.13;;;21.80;94.80;;;;;;5093423;28;20555;-51
2021/03/09 01:10:18;;;;;;;2.80;2.40;;;21.70;94.70;;;;;;5093422;28;20020;-51
2021/03/09 01:12:43;;;;;;;3.17;2.35;;;21.70;94.70;;;;;;5092952;28;20024;-51
2021/03/09 01:15:10;;;;;;;3.85;2.70;;;21.80;94.70;;;;;;5093279;28;20409;-52
2021/03/09 01:17:35;;;;;;;4.00;2.22;;;21.80;94.70;;;;;;5093232;28;20032;-51
2021/03/09 01:20:02;;;;;;;3.15;2.45;;;21.80;94.60;;;;;;5093076;28;20024;-50
2021/03/09 01:22:28;;;;;;;3.15;2.58;;;21.80;94.70;;;;;;5092870;28;20032;-54
2021/03/09 01:24:54;;;;;;;2.95;2.38;;;21.80;94.60;;;;;;5093043;28;20030;-51
2021/03/09 01:27:19;;;;;;;2.80;2.35;;;21.80;94.60;;;;;;5093121;28;20024;-50
2021/03/09 01:29:45;;;;;;;2.75;2.30;;;21.70;94.60;;;;;;5092874;28;20047;-52
2021/03/09 01:32:11;;;;;;;3.47;2.30;;;21.70;94.50;;;;;;5092807;28;20028;-49
2021/03/09 01:34:36;;;;;;;3.17;2.40;;;21.80;94.50;;;;;;5085396;28;20494;-53
2021/03/09 01:37:04;;;;;;;2.40;2.20;;;21.70;94.50;;;;;;5072585;28;20032;-51
2021/03/09 01:39:30;;;;;;;3.80;2.67;;;21.70;94.40;;;;;;5072595;28;20432;-50
2021/03/09 01:41:55;;;;;;;3.00;2.20;;;21.70;94.40;;;;;;5063212;28;20552;-51
2021/03/09 01:44:21;;;;;;;2.30;2.00;;;21.70;94.40;;;;;;5085340;28;20521;-52
2021/03/09 01:46:47;;;;;;;2.15;1.95;;;21.80;94.40;;;;;;5072368;28;20658;-54
2021/03/09 01:49:14;;;;;;;2.42;2.20;;;21.70;94.40;;;;;;5072531;28;20123;-51
2021/03/09 01:51:41;;;;;;;3.90;2.60;;;21.70;94.30;;;;;;5072224;28;20024;-54
2021/03/09 01:54:08;;;;;;;2.42;2.13;;;21.70;94.30;;;;;;5071805;28;20597;-50
2021/03/09 01:56:34;;;;;;;3.10;2.53;;;21.70;94.30;;;;;;5072219;28;20033;-51
2021/03/09 01:59:01;;;;;;;2.40;2.17;;;21.70;94.30;;;;;;5072285;28;20035;-52
2021/03/09 02:01:27;;;;;;;2.65;2.10;;;21.70;94.20;;;;;;5071300;28;20048;-50
2021/03/09 02:03:53;;;;;;;2.80;2.33;;;21.70;94.20;;;;;;5071177;28;20132;-51
2021/03/09 02:06:18;;;;;;;3.63;2.20;;;21.70;94.20;;;;;;5072014;28;20102;-50
2021/03/09 02:08:45;;;;;;;2.50;2.20;;;21.70;94.10;;;;;;5072105;28;20016;-53
2021/03/09 02:11:49;;;;;;;2.90;2.38;;;21.70;94.00;;;;;;5071903;28;20021;-53
2021/03/09 02:14:32;;;;;;;2.80;2.30;;;21.70;94.10;;;;;;5072396;28;20052;-51
2021/03/09 02:17:29;;;;;;;3.38;2.22;;;21.70;94.00;;;;;;5071934;28;20024;-53
2021/03/09 02:20:03;;;;;;;5.07;2.35;;;21.70;94.00;;;;;;5071738;28;20027;-49
2021/03/09 02:22:53;;;;;;;3.17;2.20;;;21.70;93.90;;;;;;5071623;28;20509;-51
2021/03/09 02:25:46;;;;;;;2.88;2.33;;;21.70;93.90;;;;;;5071813;28;20441;-50
2021/03/09 02:28:44;;;;;;;2.53;2.33;;;21.70;93.80;;;;;;5071747;28;20032;-51
2021/03/09 02:31:10;;;;;;;2.95;2.30;;;21.70;93.80;;;;;;5071751;28;20036;-49
2021/03/09 02:33:50;;;;;;;2.88;2.40;;;21.70;93.70;;;;;;5071766;28;20100;-52
2021/03/09 02:36:23;;;;;;;3.15;2.33;;;21.70;93.70;;;;;;5059482;28;20016;-50
2021/03/09 02:39:02;;;;;;;2.97;2.35;;;21.70;93.60;;;;;;5071598;28;20107;-51
2021/03/09 02:41:29;;;;;;;3.40;2.53;;;21.70;93.60;;;;;;5063668;28;20111;-50
2021/03/09 02:43:56;;;;;;;2.80;2.28;;;21.70;93.50;;;;;;5068542;28;20479;-50
2021/03/09 02:46:25;;;;;;;3.50;2.30;;;21.70;93.50;;;;;;5071723;28;20036;-51
2021/03/09 02:48:52;;;;;;;3.63;2.55;;;21.70;93.40;;;;;;5071377;28;20426;-53
2021/03/09 02:51:19;;;;;;;3.78;2.47;;;21.70;93.40;;;;;;5071328;28;20016;-51
2021/03/09 02:53:50;;;;;;;3.20;2.17;;;21.70;93.40;;;;;;5071533;28;20021;-54
2021/03/09 02:56:16;;;;;;;2.22;2.03;;;21.60;93.20;;;;;;5071590;28;20021;-51
2021/03/09 02:58:49;;;;;;;2.83;2.00;;;21.60;93.20;;;;;;5071485;28;20023;-56
2021/03/09 03:01:15;;;;;;;2.53;2.20;;;21.70;93.20;;;;;;5071349;28;20027;-49
2021/03/09 03:03:43;;;;;;;2.67;2.47;;;21.70;93.20;;;;;;5071342;28;20082;-53
2021/03/09 03:06:11;;;;;;;3.20;2.40;;;21.70;93.20;;;;;;5072969;28;20024;-53
2021/03/09 03:08:39;;;;;;;2.75;2.45;;;21.60;93.10;;;;;;5075378;28;20071;-52
2021/03/09 03:11:06;;;;;;;2.90;2.33;;;21.70;93.10;;;;;;5075279;28;20359;-50
2021/03/09 03:13:36;;;;;;;2.50;2.30;;;21.60;93.00;;;;;;5075308;28;20021;-50
2021/03/09 03:16:03;;;;;;;3.85;2.50;;;21.60;93.00;;;;;;5075190;28;20017;-51
2021/03/09 03:18:36;;;;;;;2.67;2.08;;;21.60;92.90;;;;;;5075342;28;20079;-49
2021/03/09 03:21:04;;;;;;;3.75;2.00;;;21.60;92.90;;;;;;5074977;28;20024;-52
2021/03/09 03:23:31;;;;;;;2.67;2.20;;;21.60;92.90;;;;;;5075233;28;20024;-49
2021/03/09 03:26:04;;;;;;;2.55;2.17;;;21.60;92.90;;;;;;5075128;28;20169;-50
2021/03/09 03:28:30;;;;;;;2.75;2.20;;;21.60;92.80;;;;;;5075053;28;20039;-54
2021/03/09 03:30:56;;;;;;;2.78;2.08;;;21.60;92.80;;;;;;5074793;28;20033;-55
2021/03/09 03:33:22;;;;;;;2.58;2.38;;;21.60;92.80;;;;;;5074940;28;20501;-53
2021/03/09 03:35:47;;;;;;;2.92;2.08;;;21.60;92.70;;;;;;5074989;28;20028;-53
2021/03/09 03:38:15;;;;;;;2.92;2.42;;;21.60;92.70;;;;;;5074852;28;20029;-53
2021/03/09 03:40:42;;;;;;;3.22;2.17;;;21.60;92.70;;;;;;5074660;28;20390;-51
2021/03/09 03:43:08;;;;;;;2.15;1.98;;;21.60;92.60;;;;;;5065944;28;20421;-52
2021/03/09 03:45:33;;;;;;;2.13;1.90;;;21.60;92.60;;;;;;5074642;28;20082;-49
2021/03/09 03:47:59;;;;;;;3.00;2.30;;;21.60;92.60;;;;;;5074727;28;20107;-50
2021/03/09 03:50:26;;;;;;;2.50;2.20;;;21.60;92.60;;;;;;5074505;28;20471;-51
2021/03/09 03:53:22;;;;;;;3.53;2.38;;;21.60;92.50;;;;;;5074590;28;20021;-52
2021/03/09 03:56:09;;;;;;;3.45;2.17;;;21.60;92.60;;;;;;5074705;28;20035;-50
2021/03/09 03:59:06;;;;;;;2.40;2.15;;;21.60;92.50;;;;;;5074612;28;20035;-50
2021/03/09 04:01:35;;;;;;;2.70;2.45;;;21.60;92.50;;;;;;5071064;28;20049;-51
2021/03/09 04:04:06;;;;;;;2.30;2.10;;;21.60;92.40;;;;;;5074385;28;20024;-50
2021/03/09 04:06:32;;;;;;;2.70;2.50;;;21.60;92.40;;;;;;5074594;28;20438;-52
2021/03/09 04:09:05;;;;;;;2.67;2.25;;;21.60;92.40;;;;;;5074262;28;20085;-49
2021/03/09 04:11:32;;;;;;;2.40;2.20;;;21.60;92.40;;;;;;5074045;28;20021;-54
2021/03/09 04:13:59;;;;;;;2.85;2.55;;;21.60;92.30;;;;;;5074405;28;20032;-52
2021/03/09 04:16:26;;;;;;;3.10;2.13;;;21.60;92.30;;;;;;5073621;28;20158;-51
2021/03/09 04:18:53;;;;;;;2.60;2.10;;;21.60;92.40;;;;;;5074044;28;20033;-53
2021/03/09 04:21:19;;;;;;;2.88;2.17;;;21.60;92.40;;;;;;5073889;28;20036;-49
2021/03/09 04:23:45;;;;;;;2.45;2.25;;;21.60;92.40;;;;;;5074076;28;20099;-49
2021/03/09 04:26:12;;;;;;;3.60;2.60;;;21.60;92.30;;;;;;5074037;28;20147;-50
2021/03/09 04:28:39;;;;;;;3.20;2.08;;;21.60;92.40;;;;;;5073902;28;20153;-52
2021/03/09 04:31:06;;;;;;;2.58;2.35;;;21.60;92.30;;;;;;5073575;28;20100;-51
2021/03/09 04:33:31;;;;;;;2.53;2.10;;;21.60;92.30;;;;;;5073901;28;20036;-51
2021/03/09 04:35:58;;;;;;;3.05;2.10;;;21.60;92.30;;;;;;5073891;28;20033;-50
2021/03/09 04:38:25;;;;;;;2.38;2.03;;;21.60;92.30;;;;;;5073671;28;20031;-50
2021/03/09 04:40:51;;;;;;;4.50;2.20;;;21.60;92.20;;;;;;5072155;28;20082;-51
2021/03/09 04:43:18;;;;;;;2.45;2.20;;;21.60;92.20;;;;;;5065946;28;20036;-51
2021/03/09 04:45:43;;;;;;;2.92;2.10;;;21.60;92.20;;;;;;5073397;28;20021;-49
2021/03/09 04:48:09;;;;;;;2.47;2.20;;;21.60;92.20;;;;;;5073798;28;20028;-51
2021/03/09 04:50:37;;;;;;;3.15;2.00;;;21.60;92.20;;;;;;5073627;28;20419;-50
2021/03/09 04:53:05;;;;;;;1.80;1.70;;;21.60;92.10;;;;;;5073422;28;20012;-51
2021/03/09 04:55:31;;;;;;;2.03;1.70;;;21.50;92.10;;;;;;5073351;28;20506;-49
2021/03/09 04:57:57;;;;;;;3.13;2.17;;;21.60;92.10;;;;;;5073524;28;20103;-50
2021/03/09 05:00:24;;;;;;;3.60;2.08;;;21.60;92.10;;;;;;5073273;28;20112;-51
2021/03/09 05:02:51;;;;;;;2.70;2.10;;;21.50;92.00;;;;;;5073190;28;20387;-51
2021/03/09 05:05:18;;;;;;;2.88;2.05;;;21.50;92.30;;;;;;5073069;28;20471;-53
2021/03/09 05:07:44;;;;;;;2.30;2.10;;;21.60;92.00;;;;;;5073347;28;20391;-50
2021/03/09 05:10:12;;;;;;;2.67;2.13;;;21.50;91.90;;;;;;5073187;28;20021;-50
2021/03/09 05:12:43;;;;;;;2.20;1.92;;;21.60;92.00;;;;;;5072850;28;20028;-50
2021/03/09 05:15:10;;;;;;;2.20;2.00;;;21.60;91.90;;;;;;5073037;28;20046;-50
2021/03/09 05:17:36;;;;;;;2.83;2.30;;;21.60;91.90;;;;;;5072853;28;20626;-49
2021/03/09 05:20:04;;;;;;;2.20;2.00;;;21.50;91.90;;;;;;5072858;28;20086;-58
2021/03/09 05:22:30;;;;;;;3.67;2.33;;;21.60;91.90;;;;;;5072676;28;20467;-58
2021/03/09 05:24:55;;;;;;;2.25;2.03;;;21.50;91.90;;;;;;5072896;28;20085;-59
2021/03/09 05:27:21;;;;;;;2.88;2.30;;;21.50;91.90;;;;;;5072709;28;20082;-58
2021/03/09 05:29:47;;;;;;;4.95;2.50;;;21.60;91.80;;;;;;5071940;28;20036;-58
2021/03/09 05:32:12;;;;;;;2.72;1.98;;;21.50;91.90;;;;;;5072612;28;20472;-58
2021/03/09 05:34:38;;;;;;;2.60;2.00;;;21.60;92.00;;;;;;5072735;28;20367;-56
2021/03/09 05:37:03;;;;;;;4.07;2.38;;;21.50;92.00;;;;;;5072649;28;20052;-59
2021/03/09 05:39:29;;;;;;;4.88;2.17;;;21.60;92.00;;;;;;5072565;28;20099;-60
2021/03/09 05:41:54;;;;;;;3.95;2.10;;;21.50;92.00;;;;;;5063883;28;20029;-57
2021/03/09 05:44:20;;;;;;;2.88;2.10;;;21.60;92.00;;;;;;5092547;28;20051;-57
2021/03/09 05:46:45;;;;;;;2.78;2.15;;;21.50;92.00;;;;;;5092798;28;20051;-57
2021/03/09 05:49:11;;;;;;;4.55;2.10;;;21.50;92.00;;;;;;5092683;28;20039;-56
2021/03/09 05:51:38;;;;;;;3.40;1.90;;;21.60;92.00;;;;;;5092410;28;20107;-57
2021/03/09 05:54:03;;;;;;;4.68;2.10;;;21.50;92.00;;;;;;5092794;28;20073;-58
2021/03/09 05:56:29;;;;;;;3.22;1.80;;;21.50;92.00;;;;;;5092483;28;20389;-58
2021/03/09 05:58:55;;;;;;;3.40;2.00;;;21.50;92.10;;;;;;5092471;28;20548;-56
2021/03/09 06:01:20;;;;;;;2.20;2.00;;;21.50;92.00;;;;;;5092319;28;20063;-57
2021/03/09 06:03:46;;;;;;;3.45;2.00;;;21.50;92.00;;;;;;5092476;28;20704;-57
2021/03/09 06:06:12;;;;;;;4.55;2.40;;;21.50;92.00;;;;;;5092497;28;20052;-57
2021/03/09 06:08:38;;;;;;;4.85;2.28;;;21.50;91.90;;;;;;5092254;28;20032;-59
2021/03/09 06:11:17;;;;;;;3.00;1.98;;;21.50;91.90;;;;;;5092164;28;20020;-57
2021/03/09 06:13:43;;;;;;;2.70;2.22;;;21.50;91.90;;;;;;5092316;28;20099;-60
2021/03/09 06:16:10;;;;;;;3.22;2.20;;;21.50;91.90;;;;;;5092296;28;20074;-58
2021/03/09 06:18:36;;;;;;;3.28;2.40;;;21.50;91.90;;;;;;5092236;28;20016;-57
2021/03/09 06:21:09;;;;;;;3.30;2.10;;;21.60;92.00;;;;;;5092001;28;20415;-56
2021/03/09 06:23:34;;;;;;;2.90;2.10;;;21.60;92.00;;;;;;5092091;28;20051;-58
2021/03/09 06:26:00;;;;;;;5.00;3.10;;;21.60;92.00;;;;;;5092278;28;20063;-58
2021/03/09 06:28:30;;;;;;;4.40;2.90;;;21.50;91.80;;;;;;5091953;28;20032;-56
2021/03/09 06:30:59;;;;;;;4.60;2.35;;;21.50;91.90;;;;;;5091853;28;20032;-59
2021/03/09 06:33:29;;;;;;;4.00;2.47;;;21.50;92.10;;;;;;5092132;28;20085;-58
2021/03/09 06:35:55;;;;;;;3.80;2.42;;;21.50;92.30;;;;;;5072154;28;20032;-59
2021/03/09 06:38:31;;;;;;;4.45;2.55;;;21.50;92.30;;;;;;5071901;28;20029;-59
2021/03/09 06:41:09;;;;;;;7.13;3.78;;;21.50;92.30;;;;;;5069245;28;20025;-59
2021/03/09 06:43:35;;;;;;;7.15;4.05;;;21.50;92.10;;;;;;5080337;28;20062;-58
2021/03/09 06:46:22;;;;;;;8.00;3.92;;;21.50;91.70;;;;;;5092031;28;20028;-59
2021/03/09 06:48:53;;;;;;;4.25;3.15;;;21.50;92.10;;;;;;5091798;28;20028;-58
2021/03/09 06:51:30;;;;;;;7.47;3.75;;;21.50;91.80;;;;;;5091713;28;20053;-58
2021/03/09 06:53:58;;;;;;;5.03;3.33;;;21.50;91.60;;;;;;5091989;28;20047;-57
2021/03/09 06:56:26;;;;;;;6.40;3.63;;;21.50;91.40;;;;;;5091782;28;20502;-59
2021/03/09 06:58:51;;;;;;;5.57;3.35;;;21.50;91.30;;;;;;5091855;28;20073;-56
2021/03/09 07:01:17;;;;;;;5.07;3.30;;;21.50;91.30;;;;;;5091484;28;20400;-59
2021/03/09 07:03:43;;;;;;;5.05;3.20;;;21.50;91.20;;;;;;5091789;28;20513;-60
2021/03/09 07:06:08;;;;;;;5.85;3.42;;;21.60;91.30;;;;;;5091730;28;20036;-60
2021/03/09 07:08:34;;;;;;;6.88;3.42;;;21.60;91.30;;;;;;5091704;28;20034;-58
2021/03/09 07:11:00;;;;;;;5.43;3.35;;;21.50;91.30;;;;;;5091554;28;20028;-62
2021/03/09 07:13:28;;;;;;;5.72;3.80;;;21.60;91.30;;;;;;5091502;28;20043;-54
2021/03/09 07:15:54;;;;;;;8.32;3.60;;;21.60;91.40;;;;;;5091884;28;20024;-66
2021/03/09 07:18:25;;;;;;;12.40;4.05;;;21.40;93.00;;;;;;5091513;28;20020;-56
2021/03/09 07:20:53;;;;;;;10.55;4.13;;;21.70;60.00;;;;;;5091357;28;20031;-63
2021/03/09 07:23:20;;;;;;;6.75;3.72;;;21.80;60.70;;;;;;5091479;28;20462;-49
2021/03/09 07:25:51;;;;;;;9.20;4.10;;;21.80;59.50;;;;;;5091407;28;20032;-49
2021/03/09 07:28:19;;;;;;;12.40;4.10;;;21.80;59.10;;;;;;5091343;28;20390;-48
2021/03/09 07:53:27;;;;;;;79.32;38.47;;;30.20;51.20;;;;;;5089320;28;20389;-65
2021/03/09 07:56:08;;;;;;;61.22;30.05;;;26.60;53.00;;;;;;5089122;28;20032;-65
2021/03/09 07:58:34;;;;;;;50.47;25.85;;;24.30;54.90;;;;;;5089095;28;20032;-64
2021/03/09 08:01:04;;;;;;;45.85;25.58;;;23.40;59.80;;;;;;5089009;28;20032;-46
2021/03/09 08:03:30;;;;;;;41.42;22.20;;;22.70;57.10;;;;;;5088936;28;20078;-49
2021/03/09 08:05:58;;;;;;;37.95;20.90;;;22.20;51.60;;;;;;5089054;28;20502;-52
2021/03/09 08:18:20;;;;;;;26.52;19.13;;;;;;;;;;5128076;27;20112;-75
2021/03/09 08:20:54;;;;;;;27.73;20.08;;;12.40;52.20;;;;;;5108955;28;20058;-76
2021/03/09 08:23:35;;;;;;;28.02;20.48;;;10.60;60.90;;;;;;5108392;28;20429;-75
2021/03/09 08:26:01;;;;;;;24.65;20.08;;;9.30;63.10;;;;;;5090428;28;20028;-75
2021/03/09 08:28:34;;;;;;;29.13;20.20;;;;;;;;;;5090322;28;20115;-75
2021/03/09 08:31:26;;;;;;;32.10;20.17;;;;;;;;;;5090499;28;20039;-77
2021/03/09 08:34:21;;;;;;;30.08;20.92;;;;;;;;;;5090217;28;20067;-77
2021/03/09 08:36:55;;;;;;;30.42;22.00;;;;;;;;;;5090510;28;20024;-77
2021/03/09 08:39:23;;;;;;;29.05;21.42;;;;;;;;;;5090759;28;20048;-76
2021/03/09 08:41:57;;;;;;;30.30;23.25;;;;;;;;;;5070361;28;20032;-77
2021/03/09 08:44:28;;;;;;;31.52;24.52;;;;;;;;;;5096495;28;20564;-77
2021/03/09 08:47:12;;;;;;;29.33;23.58;;;;;;;;;;5090402;28;20112;-76
2021/03/09 08:49:45;;;;;;;30.90;22.65;;;;;;;;;;5109015;28;20135;-76
2021/03/09 08:52:12;;;;;;;28.08;21.92;;;;;;;;;;5106188;28;20186;-76
2021/03/09 08:54:49;;;;;;;29.55;21.42;;;;;;;;;;5107596;28;20055;-77
2021/03/09 08:57:18;;;;;;;34.97;25.95;;;;;;;;;;5061885;28;20032;-76
2021/03/09 08:59:49;;;;;;;34.63;27.35;;;;;;;;;;5090161;28;20058;-76
2021/03/09 09:02:15;;;;;;;31.50;23.42;;;;;;;;;;5090125;28;20386;-77
2021/03/09 09:04:45;;;;;;;30.02;22.48;;;;;;;;;;5090233;28;20504;-76
2021/03/09 09:07:20;;;;;;;28.25;20.58;;;;;;;;;;5091314;28;20067;-76
2021/03/09 09:09:48;;;;;;;29.45;21.75;;;;;;;;;;5089950;28;20038;-77
2021/03/09 09:12:25;;;;;;;28.25;20.73;;;;;;;;;;5106990;28;20032;-77
2021/03/09 09:15:03;;;;;;;31.33;22.65;;;;;;;;;;5108707;28;20547;-76
2021/03/09 09:17:33;;;;;;;30.85;22.08;;;;;;;;;;5089957;28;20035;-76
2021/03/09 09:20:13;;;;;;;31.15;23.40;;;;;;;;;;5108408;28;20035;-76
2021/03/09 09:22:39;;;;;;;30.08;21.13;;;;;;;;;;5089438;28;20394;-77
2021/03/09 09:25:07;;;;;;;30.13;21.70;;;;;;;;;;5089799;28;20165;-77
2021/03/09 09:27:47;;;;;;;28.73;21.42;;;;;;;;;;5087571;28;20024;-76
2021/03/09 09:30:36;;;;;;;29.48;21.58;;;;;;;;;;5076549;28;20028;-77
2021/03/09 09:33:05;;;;;;;27.05;19.90;;;;;;;;;;5080812;28;20112;-77
2021/03/09 09:35:31;;;;;;;27.48;21.13;;;;;;;;;;5076486;28;20024;-77
2021/03/09 09:38:07;;;;;;;25.40;19.42;;;;;;;;;;5075972;28;20107;-77
2021/03/09 09:40:35;;;;;;;23.55;18.67;;;;;;;;;;5075997;28;20032;-76
2021/03/09 09:43:01;;;;;;;26.48;19.17;;;;;;;;;;5085252;28;20063;-77
2021/03/09 09:45:28;;;;;;;24.25;18.52;;;;;;;;;;5075541;28;20024;-77
2021/03/09 09:47:54;;;;;;;24.58;18.02;;;;;;;;;;5076184;28;20544;-77
2021/03/09 09:50:21;;;;;;;23.77;18.20;;;;;;;;;;5075893;28;20052;-77
2021/03/09 09:52:54;;;;;;;23.63;17.58;;;;;;;;;;5075700;28;20401;-77
2021/03/09 09:55:27;;;;;;;26.17;18.42;;;;;;;;;;5075593;28;20028;-77
2021/03/09 09:57:54;;;;;;;24.45;17.75;;;;;;;;;;5075787;28;20028;-76
2021/03/09 10:00:22;;;;;;;22.85;17.48;;;;;;;;;;5075281;28;20115;-77
2021/03/09 10:03:07;;;;;;;23.30;17.25;;;;;;;;;;5075551;28;20020;-77
2021/03/09 10:05:33;;;;;;;23.60;17.90;;;;;;;;;;5075824;28;20026;-77
2021/03/09 10:07:59;;;;;;;20.70;17.25;;;;;;;;;;5075260;28;20557;-77
2021/03/09 10:10:25;;;;;;;23.25;16.98;;;;;;;;;;5075450;28;20032;-77
2021/03/09 10:12:51;;;;;;;21.42;16.27;;;;;;;;;;5074886;28;20028;-76
2021/03/09 10:15:19;;;;;;;22.45;16.98;;;;;;;;;;5075207;28;20024;-77
2021/03/09 10:17:45;;;;;;;24.08;16.85;;;;;;;;;;5075214;28;20617;-77
2021/03/09 10:20:17;;;;;;;26.08;18.77;;;;;;;;;;5075493;28;20028;-77
2021/03/09 10:22:43;;;;;;;20.92;16.20;;;;;;;;;;5074940;28;20050;-76
2021/03/09 10:25:11;;;;;;;24.95;17.02;;;;;;;;;;5075045;28;20474;-77
2021/03/09 10:27:37;;;;;;;21.75;16.85;;;;;;;;;;5075294;28;20043;-77
2021/03/09 10:30:04;;;;;;;22.92;16.70;;;;;;;;;;5075100;28;20081;-77
2021/03/09 10:32:30;;;;;;;25.63;17.92;;;;;;;;;;5074826;28;20040;-77
2021/03/09 10:34:56;;;;;;;22.45;16.90;;;;;;;;;;5075156;28;20020;-77
2021/03/09 10:37:36;;;;;;;26.13;18.08;;;;;;;;;;5074929;28;20035;-77
2021/03/09 10:40:07;;;;;;;22.90;16.45;;;;;;;;;;5073707;28;20482;-77
2021/03/09 10:42:37;;;;;;;22.88;17.58;;;;;;;;;;5084567;28;20028;-77
2021/03/09 10:45:22;;;;;;;21.13;15.93;;;;;;;;;;5075090;28;20073;-77
2021/03/09 10:47:48;;;;;;;22.63;16.67;;;;;;;;;;5073710;28;20109;-77
2021/03/09 10:50:14;;;;;;;28.35;20.80;;;;;;;;;;5074592;28;20064;-77
2021/03/09 10:52:41;;;;;;;25.05;18.75;;;;;;;;;;5074584;28;20114;-77
2021/03/09 10:55:07;;;;;;;22.63;17.45;;;;;;;;;;5074629;28;20074;-76
2021/03/09 10:57:33;;;;;;;22.85;17.85;;;;;;;;;;5074445;28;20058;-77
2021/03/09 10:59:59;;;;;;;23.83;16.95;;;;;;;;;;5074323;28;20054;-77
2021/03/09 11:02:25;;;;;;;23.92;19.40;;;;;;;;;;5074261;28;20077;-77
2021/03/09 11:04:52;;;;;;;23.23;17.08;;;;;;;;;;5074272;28;20035;-77
2021/03/09 11:07:18;;;;;;;23.95;17.92;;;;;;;;;;5074190;28;20028;-77
2021/03/09 11:09:44;;;;;;;20.15;15.25;;;;;;;;;;5074173;28;20032;-77
2021/03/09 11:12:10;;;;;;;21.63;15.65;;;;;;;;;;5074163;28;20028;-77
2021/03/09 11:14:36;;;;;;;20.40;15.38;;;;;;;;;;5074392;28;20051;-77
2021/03/09 11:17:02;;;;;;;19.00;14.68;;;;;;;;;;5073946;28;20043;-77
2021/03/09 11:19:28;;;;;;;19.85;16.27;;;;;;;;;;5074011;28;20021;-77
2021/03/09 11:21:54;;;;;;;17.85;14.55;;;;;;;;;;5092272;28;20038;-77
2021/03/09 11:24:20;;;;;;;20.63;15.63;;;;;;;;;;5074353;28;20031;-77
2021/03/09 11:26:46;;;;;;;20.00;15.48;;;;;;;;;;5074017;28;20035;-77
2021/03/09 11:29:13;;;;;;;20.25;16.20;;;;;;;;;;5074509;28;20035;-77
2021/03/09 11:31:39;;;;;;;19.50;15.00;;;;;;;;;;5074003;28;20066;-77
2021/03/09 11:34:05;;;;;;;20.48;15.60;;;;;;;;;;5074516;28;20371;-77
2021/03/09 11:36:31;;;;;;;19.55;15.80;;;;;;;;;;5092474;28;20378;-77
2021/03/09 11:38:57;;;;;;;20.48;15.55;;;;;;;;;;5074048;28;20455;-77
2021/03/09 11:41:23;;;;;;;21.85;16.20;;;;;;;;;;5092008;28;20025;-77
2021/03/09 11:43:49;;;;;;;18.35;15.10;;;5.50;68.30;;;;;;5092333;28;20031;-77
2021/03/09 11:46:15;;;;;;;17.63;14.10;;;;;;;;;;5092177;28;20051;-77
2021/03/09 11:48:41;;;;;;;20.58;15.32;;;;;;;;;;5091903;28;20071;-76
2021/03/09 11:51:08;;;;;;;18.00;14.00;;;5.60;68.70;;;;;;5092857;28;20028;-78
2021/03/09 11:53:34;;;;;;;19.83;13.80;;;5.90;67.20;;;;;;5078448;28;20035;-76
2021/03/09 11:56:00;;;;;;;17.08;13.82;;;;;;;;;;5096375;28;20028;-76
2021/03/09 11:58:26;;;;;;;18.55;12.93;;;;;;;;;;5096642;28;20447;-77
2021/03/09 12:00:52;;;;;;;17.98;14.52;;;;;;;;;;5077863;28;20024;-77
2021/03/09 12:03:18;;;;;;;17.48;13.27;;;;;;;;;;5094889;28;20031;-77
2021/03/09 12:05:44;;;;;;;21.83;14.80;;;;;;;;;;5095168;28;20398;-76
2021/03/09 12:08:10;;;;;;;17.40;13.50;;;;;;;;;;5077386;28;20063;-78
2021/03/09 12:10:36;;;;;;;17.25;12.10;;;;;;;;;;5096493;28;20032;-78
2021/03/09 12:13:02;;;;;;;16.95;13.57;;;;;;;;;;5095116;28;20074;-78
2021/03/09 12:15:28;;;;;;;16.77;12.93;;;;;;;;;;5095237;28;20501;-77
2021/03/09 12:17:54;;;;;;;16.20;11.55;;;;;;;;;;5094386;28;20039;-77
2021/03/09 12:20:19;;;;;;;15.90;12.65;;;;;;;;;;5095999;28;20097;-77
2021/03/09 12:22:46;;;;;;;16.02;11.85;;;;;;;;;;5096095;28;20020;-78
2021/03/09 12:25:12;;;;;;;15.90;10.73;;;;;;;;;;5095434;28;20144;-78
2021/03/09 12:27:39;;;;;;;14.25;11.27;;;;;;;;;;5095060;28;20032;-76
2021/03/09 12:30:08;;;;;;;16.75;11.32;;;;;;;;;;5094728;28;20028;-75
2021/03/09 12:32:34;;;;;;;14.82;10.68;;;;;;;;;;5095042;28;20027;-77
2021/03/09 12:35:00;;;;;;;14.45;10.70;;;;;;;;;;5077048;28;20082;-78
2021/03/09 12:37:26;;;;;;;12.32;9.60;;;;;;;;;;5096533;28;20028;-78
2021/03/09 12:39:52;;;;;;;14.13;10.70;;;;;;;;;;5095299;28;20032;-76
2021/03/09 12:42:18;;;;;;;18.67;11.32;;;;;;;;;;5091879;28;20020;-78
2021/03/09 12:44:44;;;;;;;18.90;11.15;;;;;;;;;;5096308;28;20043;-78
2021/03/09 12:47:10;;;;;;;12.50;9.85;;;;;;;;;;5095683;28;20024;-77
2021/03/09 12:49:36;;;;;;;11.90;9.45;;;;;;;;;;5096582;28;20055;-78
2021/03/09 12:52:03;;;;;;;11.65;9.05;;;;;;;;;;5093867;28;20032;-76
2021/03/09 12:54:29;;;;;;;12.90;9.23;;;;;;;;;;5091641;28;20390;-78
2021/03/09 12:56:55;;;;;;;12.73;8.95;;;;;;;;;;5097511;28;20029;-78
2021/03/09 12:59:21;;;;;;;13.57;10.27;;;;;;;;;;5095799;28;20541;-77
2021/03/09 13:01:47;;;;;;;11.80;9.20;;;;;;;;;;5095458;28;20030;-77
2021/03/09 13:04:13;;;;;;;14.15;9.10;;;;;;;;;;5097728;28;20103;-78
2021/03/09 13:06:39;;;;;;;13.60;9.60;;;;;;;;;;5098953;28;20028;-78
2021/03/09 13:09:06;;;;;;;13.73;8.68;;;;;;;;;;5099133;28;20056;-77
2021/03/09 13:11:32;;;;;;;13.43;8.98;;;;;;;;;;5099976;28;20028;-77
2021/03/09 13:13:58;;;;;;;14.25;10.00;;;11.20;76.90;;;;;;5099735;28;20030;-76
2021/03/09 13:16:25;;;;;;;12.88;8.95;;;;;;;;;;5094750;28;20111;-76
2021/03/09 13:18:51;;;;;;;15.82;9.50;;;;;;;;;;5094875;28;20398;-75
2021/03/09 13:21:17;;;;;;;11.80;9.02;;;9.80;50.90;;;;;;5094759;28;20416;-77
2021/03/09 13:23:45;;;;;;;14.32;8.98;;;;;;;;;;5095071;28;20020;-75
2021/03/09 13:26:11;;;;;;;13.80;9.77;;;;;;;;;;5095392;28;20086;-77
2021/03/09 13:28:37;;;;;;;12.80;9.50;;;;;;;;;;5080016;28;20532;-77
2021/03/09 13:31:03;;;;;;;16.05;10.55;;;;;;;;;;5097605;28;20052;-77
2021/03/09 13:33:28;;;;;;;14.75;9.85;;;7.50;90.70;;;;;;5097618;28;20486;-77
2021/03/09 13:35:55;;;;;;;14.68;10.50;;;;;;;;;;5097293;28;20382;-75
2021/03/09 13:38:21;;;;;;;12.20;9.50;;;;;;;;;;5096864;28;20024;-77
2021/03/09 13:40:47;;;;;;;13.98;10.25;;;6.60;62.10;;;;;;5096255;28;20031;-77
2021/03/09 13:43:13;;;;;;;13.13;10.63;;;;;;;;;;5097199;28;20017;-78
2021/03/09 13:45:39;;;;;;;13.95;11.13;;;;;;;;;;5096879;28;20046;-76
2021/03/09 13:48:05;;;;;;;15.90;12.10;;;6.00;76.50;;;;;;5096542;28;20028;-77
2021/03/09 13:50:31;;;;;;;16.88;12.73;;;;;;;;;;5096984;28;20429;-76
2021/03/09 13:52:57;;;;;;;16.02;12.20;;;;;;;;;;5096833;28;20503;-77
2021/03/09 13:55:23;;;;;;;16.20;12.32;;;;;;;;;;5078976;28;20020;-77
2021/03/09 13:57:49;;;;;;;16.40;12.02;;;;;;;;;;5096227;28;20062;-76
2021/03/09 14:00:15;;;;;;;14.82;12.07;;;5.80;64.90;;;;;;5096666;28;20024;-76